sensor_id;sensor_type;location;lat;lon;timestamp;P1;durP1;ratioP1;P2;durP2;ratioP2
20649;SDS011;10484;48.736;9.332;2024-01-30T00:01:15;8.77;;;7.57;;
20649;SDS011;10484;48.736;9.332;2024-01-30T00:03:40;11.83;;;8.07;;
20649;SDS011;10484;48.736;9.332;2024-01-30T00:06:06;9.40;;;7.93;;
20649;SDS011;10484;48.736;9.332;2024-01-30T00:08:36;8.65;;;7.75;;
20649;SDS011;10484;48.736;9.332;2024-01-30T00:11:01;8.10;;;7.00;;
20649;SDS011;10484;48.736;9.332;2024-01-30T00:13:27;8.53;;;7.53;;
20649;SDS011;10484;48.736;9.332;2024-01-30T00:15:53;11.60;;;8.77;;
20649;SDS011;10484;48.736;9.332;2024-01-30T00:18:18;8.93;;;8.00;;
20649;SDS011;10484;48.736;9.332;2024-01-30T00:20:44;8.17;;;7.37;;
20649;SDS011;10484;48.736;9.332;2024-01-30T00:23:10;7.20;;;6.50;;
20649;SDS011;10484;48.736;9.332;2024-01-30T00:25:36;8.13;;;7.23;;
20649;SDS011;10484;48.736;9.332;2024-01-30T00:28:01;8.63;;;7.43;;
20649;SDS011;10484;48.736;9.332;2024-01-30T00:30:27;9.20;;;7.83;;
20649;SDS011;10484;48.736;9.332;2024-01-30T00:32:53;10.57;;;8.13;;
20649;SDS011;10484;48.736;9.332;2024-01-30T00:35:18;10.13;;;7.70;;
20649;SDS011;10484;48.736;9.332;2024-01-30T00:37:44;9.40;;;7.30;;
20649;SDS011;10484;48.736;9.332;2024-01-30T00:40:10;9.07;;;7.40;;
20649;SDS011;10484;48.736;9.332;2024-01-30T00:42:40;7.75;;;6.05;;
20649;SDS011;10484;48.736;9.332;2024-01-30T00:45:11;9.85;;;8.10;;
20649;SDS011;10484;48.736;9.332;2024-01-30T00:47:39;10.48;;;7.95;;
20649;SDS011;10484;48.736;9.332;2024-01-30T00:50:04;9.33;;;7.50;;
20649;SDS011;10484;48.736;9.332;2024-01-30T00:52:30;9.57;;;6.88;;
20649;SDS011;10484;48.736;9.332;2024-01-30T00:54:58;11.18;;;7.40;;
20649;SDS011;10484;48.736;9.332;2024-01-30T00:57:24;8.52;;;7.13;;
20649;SDS011;10484;48.736;9.332;2024-01-30T00:59:49;9.10;;;6.80;;
20649;SDS011;10484;48.736;9.332;2024-01-30T01:02:15;8.20;;;6.73;;
20649;SDS011;10484;48.736;9.332;2024-01-30T01:04:42;8.77;;;6.13;;
20649;SDS011;10484;48.736;9.332;2024-01-30T01:07:09;9.13;;;7.70;;
20649;SDS011;10484;48.736;9.332;2024-01-30T01:09:35;7.82;;;6.65;;
20649;SDS011;10484;48.736;9.332;2024-01-30T01:12:01;7.10;;;6.40;;
20649;SDS011;10484;48.736;9.332;2024-01-30T01:14:27;7.57;;;6.35;;
20649;SDS011;10484;48.736;9.332;2024-01-30T01:16:52;9.97;;;7.10;;
20649;SDS011;10484;48.736;9.332;2024-01-30T01:19:18;7.33;;;6.53;;
20649;SDS011;10484;48.736;9.332;2024-01-30T01:21:44;7.83;;;7.03;;
20649;SDS011;10484;48.736;9.332;2024-01-30T01:24:09;8.53;;;6.97;;
20649;SDS011;10484;48.736;9.332;2024-01-30T01:26:35;8.90;;;7.20;;
20649;SDS011;10484;48.736;9.332;2024-01-30T01:29:00;8.40;;;7.50;;
20649;SDS011;10484;48.736;9.332;2024-01-30T01:31:26;6.80;;;6.10;;
20649;SDS011;10484;48.736;9.332;2024-01-30T01:33:54;7.30;;;6.57;;
20649;SDS011;10484;48.736;9.332;2024-01-30T01:36:20;10.33;;;7.03;;
20649;SDS011;10484;48.736;9.332;2024-01-30T01:38:45;9.57;;;7.13;;
20649;SDS011;10484;48.736;9.332;2024-01-30T01:41:11;9.53;;;6.87;;
20649;SDS011;10484;48.736;9.332;2024-01-30T01:43:37;7.93;;;7.00;;
20649;SDS011;10484;48.736;9.332;2024-01-30T01:46:04;7.65;;;6.47;;
20649;SDS011;10484;48.736;9.332;2024-01-30T01:48:30;10.05;;;6.38;;
20649;SDS011;10484;48.736;9.332;2024-01-30T01:50:57;7.97;;;6.50;;
20649;SDS011;10484;48.736;9.332;2024-01-30T01:53:23;9.85;;;7.70;;
20649;SDS011;10484;48.736;9.332;2024-01-30T01:55:48;7.30;;;6.13;;
20649;SDS011;10484;48.736;9.332;2024-01-30T01:58:18;7.20;;;6.45;;
20649;SDS011;10484;48.736;9.332;2024-01-30T02:00:46;7.80;;;6.00;;
20649;SDS011;10484;48.736;9.332;2024-01-30T02:03:11;7.70;;;6.47;;
20649;SDS011;10484;48.736;9.332;2024-01-30T02:05:41;7.18;;;6.47;;
20649;SDS011;10484;48.736;9.332;2024-01-30T02:08:07;7.57;;;6.40;;
20649;SDS011;10484;48.736;9.332;2024-01-30T02:10:34;6.95;;;6.22;;
20649;SDS011;10484;48.736;9.332;2024-01-30T02:12:59;8.03;;;7.00;;
20649;SDS011;10484;48.736;9.332;2024-01-30T02:15:25;8.83;;;6.90;;
20649;SDS011;10484;48.736;9.332;2024-01-30T02:17:50;9.27;;;6.63;;
20649;SDS011;10484;48.736;9.332;2024-01-30T02:20:16;7.47;;;6.60;;
20649;SDS011;10484;48.736;9.332;2024-01-30T02:22:42;9.40;;;7.93;;
20649;SDS011;10484;48.736;9.332;2024-01-30T02:25:08;8.82;;;7.22;;
20649;SDS011;10484;48.736;9.332;2024-01-30T02:27:33;8.27;;;6.37;;
20649;SDS011;10484;48.736;9.332;2024-01-30T02:29:59;7.97;;;6.73;;
20649;SDS011;10484;48.736;9.332;2024-01-30T02:32:25;8.20;;;6.83;;
20649;SDS011;10484;48.736;9.332;2024-01-30T02:34:50;12.30;;;7.13;;
20649;SDS011;10484;48.736;9.332;2024-01-30T02:37:16;7.43;;;6.53;;
20649;SDS011;10484;48.736;9.332;2024-01-30T02:39:42;8.40;;;7.03;;
20649;SDS011;10484;48.736;9.332;2024-01-30T02:42:08;7.67;;;6.23;;
20649;SDS011;10484;48.736;9.332;2024-01-30T02:44:33;10.30;;;7.27;;
20649;SDS011;10484;48.736;9.332;2024-01-30T02:46:59;7.77;;;6.97;;
20649;SDS011;10484;48.736;9.332;2024-01-30T02:49:24;8.77;;;7.80;;
20649;SDS011;10484;48.736;9.332;2024-01-30T02:51:51;9.77;;;7.70;;
20649;SDS011;10484;48.736;9.332;2024-01-30T02:54:16;7.10;;;6.40;;
20649;SDS011;10484;48.736;9.332;2024-01-30T02:56:42;8.77;;;6.73;;
20649;SDS011;10484;48.736;9.332;2024-01-30T02:59:08;8.47;;;7.00;;
20649;SDS011;10484;48.736;9.332;2024-01-30T03:01:33;7.90;;;7.10;;
20649;SDS011;10484;48.736;9.332;2024-01-30T03:04:06;8.82;;;7.68;;
20649;SDS011;10484;48.736;9.332;2024-01-30T03:06:32;11.43;;;7.40;;
20649;SDS011;10484;48.736;9.332;2024-01-30T03:08:58;7.50;;;6.60;;
20649;SDS011;10484;48.736;9.332;2024-01-30T03:11:23;8.10;;;6.60;;
20649;SDS011;10484;48.736;9.332;2024-01-30T03:13:49;8.47;;;6.63;;
20649;SDS011;10484;48.736;9.332;2024-01-30T03:16:14;7.37;;;6.67;;
20649;SDS011;10484;48.736;9.332;2024-01-30T03:18:40;7.83;;;6.37;;
20649;SDS011;10484;48.736;9.332;2024-01-30T03:21:05;7.97;;;6.70;;
20649;SDS011;10484;48.736;9.332;2024-01-30T03:23:31;7.20;;;6.50;;
20649;SDS011;10484;48.736;9.332;2024-01-30T03:25:57;9.75;;;7.40;;
20649;SDS011;10484;48.736;9.332;2024-01-30T03:28:23;7.37;;;6.60;;
20649;SDS011;10484;48.736;9.332;2024-01-30T03:30:48;8.07;;;7.23;;
20649;SDS011;10484;48.736;9.332;2024-01-30T03:33:14;9.57;;;7.50;;
20649;SDS011;10484;48.736;9.332;2024-01-30T03:35:39;7.40;;;6.70;;
20649;SDS011;10484;48.736;9.332;2024-01-30T03:38:05;6.73;;;5.90;;
20649;SDS011;10484;48.736;9.332;2024-01-30T03:40:31;9.13;;;6.80;;
20649;SDS011;10484;48.736;9.332;2024-01-30T03:42:56;7.57;;;6.67;;
20649;SDS011;10484;48.736;9.332;2024-01-30T03:45:22;9.85;;;6.68;;
20649;SDS011;10484;48.736;9.332;2024-01-30T03:47:48;7.27;;;6.40;;
20649;SDS011;10484;48.736;9.332;2024-01-30T03:50:14;8.93;;;7.73;;
20649;SDS011;10484;48.736;9.332;2024-01-30T03:52:39;7.00;;;6.00;;
20649;SDS011;10484;48.736;9.332;2024-01-30T03:55:05;9.57;;;6.10;;
20649;SDS011;10484;48.736;9.332;2024-01-30T03:57:31;10.13;;;7.53;;
20649;SDS011;10484;48.736;9.332;2024-01-30T03:59:57;8.27;;;7.05;;
20649;SDS011;10484;48.736;9.332;2024-01-30T04:02:22;8.57;;;6.77;;
20649;SDS011;10484;48.736;9.332;2024-01-30T04:04:48;7.83;;;7.03;;
20649;SDS011;10484;48.736;9.332;2024-01-30T04:07:13;8.13;;;6.93;;
20649;SDS011;10484;48.736;9.332;2024-01-30T04:09:39;6.73;;;5.83;;
20649;SDS011;10484;48.736;9.332;2024-01-30T04:12:05;9.20;;;7.40;;
20649;SDS011;10484;48.736;9.332;2024-01-30T04:14:30;8.27;;;7.07;;
20649;SDS011;10484;48.736;9.332;2024-01-30T04:16:56;9.20;;;6.73;;
20649;SDS011;10484;48.736;9.332;2024-01-30T04:19:22;8.17;;;7.37;;
20649;SDS011;10484;48.736;9.332;2024-01-30T04:21:47;8.00;;;7.20;;
20649;SDS011;10484;48.736;9.332;2024-01-30T04:24:13;9.10;;;7.37;;
20649;SDS011;10484;48.736;9.332;2024-01-30T04:26:38;7.63;;;6.83;;
20649;SDS011;10484;48.736;9.332;2024-01-30T04:29:04;7.30;;;6.57;;
20649;SDS011;10484;48.736;9.332;2024-01-30T04:31:29;7.57;;;6.80;;
20649;SDS011;10484;48.736;9.332;2024-01-30T04:33:55;8.60;;;7.30;;
20649;SDS011;10484;48.736;9.332;2024-01-30T04:36:21;9.20;;;6.80;;
20649;SDS011;10484;48.736;9.332;2024-01-30T04:38:46;10.10;;;7.70;;
20649;SDS011;10484;48.736;9.332;2024-01-30T04:41:12;11.30;;;6.60;;
20649;SDS011;10484;48.736;9.332;2024-01-30T04:43:37;9.30;;;7.03;;
20649;SDS011;10484;48.736;9.332;2024-01-30T04:46:03;7.73;;;6.90;;
20649;SDS011;10484;48.736;9.332;2024-01-30T04:48:29;8.95;;;6.97;;
20649;SDS011;10484;48.736;9.332;2024-01-30T04:50:55;11.13;;;7.03;;
20649;SDS011;10484;48.736;9.332;2024-01-30T04:53:21;12.30;;;7.33;;
20649;SDS011;10484;48.736;9.332;2024-01-30T04:55:47;8.90;;;7.63;;
20649;SDS011;10484;48.736;9.332;2024-01-30T04:58:12;10.40;;;7.63;;
20649;SDS011;10484;48.736;9.332;2024-01-30T05:00:38;8.47;;;6.90;;
20649;SDS011;10484;48.736;9.332;2024-01-30T05:03:03;9.20;;;7.77;;
20649;SDS011;10484;48.736;9.332;2024-01-30T05:05:29;10.23;;;7.23;;
20649;SDS011;10484;48.736;9.332;2024-01-30T05:07:54;8.97;;;7.97;;
20649;SDS011;10484;48.736;9.332;2024-01-30T05:10:20;8.10;;;7.00;;
20649;SDS011;10484;48.736;9.332;2024-01-30T05:12:46;8.53;;;7.70;;
20649;SDS011;10484;48.736;9.332;2024-01-30T05:15:11;9.07;;;7.67;;
20649;SDS011;10484;48.736;9.332;2024-01-30T05:17:37;9.27;;;7.60;;
20649;SDS011;10484;48.736;9.332;2024-01-30T05:20:02;7.90;;;7.10;;
20649;SDS011;10484;48.736;9.332;2024-01-30T05:22:29;9.05;;;6.55;;
20649;SDS011;10484;48.736;9.332;2024-01-30T05:24:55;9.10;;;7.40;;
20649;SDS011;10484;48.736;9.332;2024-01-30T05:27:20;8.10;;;7.00;;
20649;SDS011;10484;48.736;9.332;2024-01-30T05:29:46;9.50;;;7.60;;
20649;SDS011;10484;48.736;9.332;2024-01-30T05:32:12;8.00;;;7.20;;
20649;SDS011;10484;48.736;9.332;2024-01-30T05:34:37;7.63;;;6.83;;
20649;SDS011;10484;48.736;9.332;2024-01-30T05:37:03;9.43;;;7.03;;
20649;SDS011;10484;48.736;9.332;2024-01-30T05:39:28;11.20;;;8.00;;
20649;SDS011;10484;48.736;9.332;2024-01-30T05:41:54;9.40;;;7.90;;
20649;SDS011;10484;48.736;9.332;2024-01-30T05:44:20;10.60;;;7.60;;
20649;SDS011;10484;48.736;9.332;2024-01-30T05:46:45;7.93;;;6.60;;
20649;SDS011;10484;48.736;9.332;2024-01-30T05:49:11;9.77;;;8.30;;
20649;SDS011;10484;48.736;9.332;2024-01-30T05:51:37;9.77;;;8.17;;
20649;SDS011;10484;48.736;9.332;2024-01-30T05:54:02;9.60;;;7.80;;
20649;SDS011;10484;48.736;9.332;2024-01-30T05:56:29;8.05;;;7.25;;
20649;SDS011;10484;48.736;9.332;2024-01-30T05:58:55;9.80;;;7.47;;
20649;SDS011;10484;48.736;9.332;2024-01-30T06:01:20;7.87;;;6.83;;
20649;SDS011;10484;48.736;9.332;2024-01-30T06:03:46;10.20;;;8.10;;
20649;SDS011;10484;48.736;9.332;2024-01-30T06:06:11;9.80;;;8.80;;
20649;SDS011;10484;48.736;9.332;2024-01-30T06:08:37;11.53;;;8.60;;
20649;SDS011;10484;48.736;9.332;2024-01-30T06:11:02;11.07;;;8.73;;
20649;SDS011;10484;48.736;9.332;2024-01-30T06:13:28;9.70;;;8.07;;
20649;SDS011;10484;48.736;9.332;2024-01-30T06:15:56;8.70;;;7.80;;
20649;SDS011;10484;48.736;9.332;2024-01-30T06:18:22;11.10;;;9.40;;
20649;SDS011;10484;48.736;9.332;2024-01-30T06:20:48;11.17;;;8.10;;
20649;SDS011;10484;48.736;9.332;2024-01-30T06:23:14;10.03;;;8.90;;
20649;SDS011;10484;48.736;9.332;2024-01-30T06:25:39;14.47;;;8.20;;
20649;SDS011;10484;48.736;9.332;2024-01-30T06:28:05;11.25;;;9.10;;
20649;SDS011;10484;48.736;9.332;2024-01-30T06:30:31;11.13;;;9.47;;
20649;SDS011;10484;48.736;9.332;2024-01-30T06:32:56;12.00;;;8.80;;
20649;SDS011;10484;48.736;9.332;2024-01-30T06:35:22;12.63;;;9.23;;
20649;SDS011;10484;48.736;9.332;2024-01-30T06:37:47;11.50;;;8.00;;
20649;SDS011;10484;48.736;9.332;2024-01-30T06:40:13;10.60;;;9.37;;
20649;SDS011;10484;48.736;9.332;2024-01-30T06:42:39;11.77;;;9.90;;
20649;SDS011;10484;48.736;9.332;2024-01-30T06:45:04;12.57;;;10.43;;
20649;SDS011;10484;48.736;9.332;2024-01-30T06:47:30;13.75;;;9.52;;
20649;SDS011;10484;48.736;9.332;2024-01-30T06:49:57;10.65;;;9.02;;
20649;SDS011;10484;48.736;9.332;2024-01-30T06:52:22;11.20;;;9.40;;
20649;SDS011;10484;48.736;9.332;2024-01-30T06:54:48;10.17;;;8.70;;
20649;SDS011;10484;48.736;9.332;2024-01-30T06:57:13;10.23;;;8.53;;
20649;SDS011;10484;48.736;9.332;2024-01-30T06:59:39;10.30;;;9.17;;
20649;SDS011;10484;48.736;9.332;2024-01-30T07:02:09;10.90;;;9.75;;
20649;SDS011;10484;48.736;9.332;2024-01-30T07:04:35;11.88;;;8.70;;
20649;SDS011;10484;48.736;9.332;2024-01-30T07:07:02;9.77;;;8.77;;
20649;SDS011;10484;48.736;9.332;2024-01-30T07:09:29;11.05;;;8.52;;
20649;SDS011;10484;48.736;9.332;2024-01-30T07:11:55;8.43;;;7.53;;
20649;SDS011;10484;48.736;9.332;2024-01-30T07:14:23;10.52;;;8.77;;
20649;SDS011;10484;48.736;9.332;2024-01-30T07:16:49;9.97;;;8.97;;
20649;SDS011;10484;48.736;9.332;2024-01-30T07:19:15;11.65;;;8.93;;
20649;SDS011;10484;48.736;9.332;2024-01-30T07:21:41;9.80;;;8.77;;
20649;SDS011;10484;48.736;9.332;2024-01-30T07:24:06;15.90;;;8.70;;
20649;SDS011;10484;48.736;9.332;2024-01-30T07:26:32;10.73;;;7.87;;
20649;SDS011;10484;48.736;9.332;2024-01-30T07:28:57;11.17;;;9.03;;
20649;SDS011;10484;48.736;9.332;2024-01-30T07:31:23;9.77;;;8.10;;
20649;SDS011;10484;48.736;9.332;2024-01-30T07:33:48;10.27;;;8.73;;
20649;SDS011;10484;48.736;9.332;2024-01-30T07:36:14;9.83;;;8.80;;
20649;SDS011;10484;48.736;9.332;2024-01-30T07:38:40;16.20;;;9.30;;
20649;SDS011;10484;48.736;9.332;2024-01-30T07:41:05;10.37;;;9.27;;
20649;SDS011;10484;48.736;9.332;2024-01-30T07:43:31;9.03;;;8.13;;
20649;SDS011;10484;48.736;9.332;2024-01-30T07:45:56;9.10;;;8.13;;
20649;SDS011;10484;48.736;9.332;2024-01-30T07:48:22;9.57;;;8.30;;
20649;SDS011;10484;48.736;9.332;2024-01-30T07:50:47;9.40;;;8.40;;
20649;SDS011;10484;48.736;9.332;2024-01-30T07:53:13;10.80;;;8.50;;
20649;SDS011;10484;48.736;9.332;2024-01-30T07:55:39;9.87;;;8.57;;
20649;SDS011;10484;48.736;9.332;2024-01-30T07:58:04;13.03;;;9.17;;
20649;SDS011;10484;48.736;9.332;2024-01-30T08:00:30;13.20;;;9.53;;
20649;SDS011;10484;48.736;9.332;2024-01-30T08:02:56;14.30;;;10.40;;
20649;SDS011;10484;48.736;9.332;2024-01-30T08:05:21;12.67;;;10.23;;
20649;SDS011;10484;48.736;9.332;2024-01-30T08:07:48;12.23;;;9.40;;
20649;SDS011;10484;48.736;9.332;2024-01-30T08:10:14;11.50;;;9.48;;
20649;SDS011;10484;48.736;9.332;2024-01-30T08:12:39;12.40;;;11.10;;
20649;SDS011;10484;48.736;9.332;2024-01-30T08:15:05;11.73;;;9.93;;
20649;SDS011;10484;48.736;9.332;2024-01-30T08:17:31;13.07;;;9.97;;
20649;SDS011;10484;48.736;9.332;2024-01-30T08:19:57;10.70;;;9.70;;
20649;SDS011;10484;48.736;9.332;2024-01-30T08:22:22;12.37;;;10.30;;
20649;SDS011;10484;48.736;9.332;2024-01-30T08:24:48;13.20;;;11.00;;
20649;SDS011;10484;48.736;9.332;2024-01-30T08:27:13;12.17;;;10.63;;
20649;SDS011;10484;48.736;9.332;2024-01-30T08:29:39;13.90;;;11.00;;
20649;SDS011;10484;48.736;9.332;2024-01-30T08:32:05;13.33;;;11.27;;
20649;SDS011;10484;48.736;9.332;2024-01-30T08:34:31;11.23;;;9.43;;
20649;SDS011;10484;48.736;9.332;2024-01-30T08:36:57;12.60;;;10.77;;
20649;SDS011;10484;48.736;9.332;2024-01-30T08:39:22;15.23;;;11.80;;
20649;SDS011;10484;48.736;9.332;2024-01-30T08:41:48;17.03;;;13.63;;
20649;SDS011;10484;48.736;9.332;2024-01-30T08:44:13;18.93;;;13.73;;
20649;SDS011;10484;48.736;9.332;2024-01-30T08:46:39;19.23;;;13.60;;
20649;SDS011;10484;48.736;9.332;2024-01-30T08:49:05;22.97;;;16.60;;
20649;SDS011;10484;48.736;9.332;2024-01-30T08:51:30;24.47;;;16.27;;
20649;SDS011;10484;48.736;9.332;2024-01-30T08:53:56;23.03;;;18.20;;
20649;SDS011;10484;48.736;9.332;2024-01-30T08:56:21;26.47;;;17.53;;
20649;SDS011;10484;48.736;9.332;2024-01-30T08:58:47;23.00;;;16.60;;
20649;SDS011;10484;48.736;9.332;2024-01-30T09:01:13;23.67;;;15.77;;
20649;SDS011;10484;48.736;9.332;2024-01-30T09:03:39;21.27;;;16.15;;
20649;SDS011;10484;48.736;9.332;2024-01-30T09:06:12;20.08;;;15.52;;
20649;SDS011;10484;48.736;9.332;2024-01-30T09:08:38;17.20;;;14.82;;
20649;SDS011;10484;48.736;9.332;2024-01-30T09:11:13;20.20;;;15.67;;
20649;SDS011;10484;48.736;9.332;2024-01-30T09:13:39;17.10;;;14.70;;
20649;SDS011;10484;48.736;9.332;2024-01-30T09:16:05;18.43;;;15.83;;
20649;SDS011;10484;48.736;9.332;2024-01-30T09:18:31;16.58;;;13.88;;
20649;SDS011;10484;48.736;9.332;2024-01-30T09:20:57;15.67;;;13.53;;
20649;SDS011;10484;48.736;9.332;2024-01-30T09:23:23;14.30;;;12.37;;
20649;SDS011;10484;48.736;9.332;2024-01-30T09:25:49;15.52;;;12.90;;
20649;SDS011;10484;48.736;9.332;2024-01-30T09:28:15;14.17;;;12.37;;
20649;SDS011;10484;48.736;9.332;2024-01-30T09:30:42;14.50;;;12.98;;
20649;SDS011;10484;48.736;9.332;2024-01-30T09:33:07;16.80;;;13.73;;
20649;SDS011;10484;48.736;9.332;2024-01-30T09:35:33;16.63;;;13.10;;
20649;SDS011;10484;48.736;9.332;2024-01-30T09:37:59;14.43;;;12.80;;
20649;SDS011;10484;48.736;9.332;2024-01-30T09:40:24;13.93;;;11.80;;
20649;SDS011;10484;48.736;9.332;2024-01-30T09:42:50;13.35;;;11.43;;
20649;SDS011;10484;48.736;9.332;2024-01-30T09:45:17;14.30;;;11.97;;
20649;SDS011;10484;48.736;9.332;2024-01-30T09:47:44;15.13;;;12.02;;
20649;SDS011;10484;48.736;9.332;2024-01-30T09:50:11;13.75;;;11.30;;
20649;SDS011;10484;48.736;9.332;2024-01-30T09:52:38;16.60;;;12.98;;
20649;SDS011;10484;48.736;9.332;2024-01-30T09:55:04;15.52;;;12.00;;
20649;SDS011;10484;48.736;9.332;2024-01-30T09:57:31;13.52;;;11.75;;
20649;SDS011;10484;48.736;9.332;2024-01-30T09:59:57;14.40;;;12.17;;
20649;SDS011;10484;48.736;9.332;2024-01-30T10:02:23;13.17;;;11.70;;
20649;SDS011;10484;48.736;9.332;2024-01-30T10:04:49;13.75;;;12.30;;
20649;SDS011;10484;48.736;9.332;2024-01-30T10:07:15;12.65;;;10.93;;
20649;SDS011;10484;48.736;9.332;2024-01-30T10:09:41;13.20;;;11.90;;
20649;SDS011;10484;48.736;9.332;2024-01-30T10:12:08;15.10;;;11.50;;
20649;SDS011;10484;48.736;9.332;2024-01-30T10:14:37;13.43;;;10.80;;
20649;SDS011;10484;48.736;9.332;2024-01-30T10:17:09;13.13;;;10.93;;
20649;SDS011;10484;48.736;9.332;2024-01-30T10:19:36;11.75;;;10.50;;
20649;SDS011;10484;48.736;9.332;2024-01-30T10:22:06;11.98;;;10.77;;
20649;SDS011;10484;48.736;9.332;2024-01-30T10:24:34;12.80;;;10.85;;
20649;SDS011;10484;48.736;9.332;2024-01-30T10:27:00;11.38;;;10.00;;
20649;SDS011;10484;48.736;9.332;2024-01-30T10:29:26;12.50;;;11.13;;
20649;SDS011;10484;48.736;9.332;2024-01-30T10:34:28;14.50;;;12.20;;
20649;SDS011;10484;48.736;9.332;2024-01-30T10:36:59;13.87;;;11.40;;
20649;SDS011;10484;48.736;9.332;2024-01-30T10:39:30;13.05;;;11.02;;
20649;SDS011;10484;48.736;9.332;2024-01-30T10:42:02;12.20;;;10.73;;
20649;SDS011;10484;48.736;9.332;2024-01-30T10:44:30;11.95;;;10.63;;
20649;SDS011;10484;48.736;9.332;2024-01-30T10:47:06;11.65;;;10.20;;
20649;SDS011;10484;48.736;9.332;2024-01-30T10:49:36;11.77;;;10.00;;
20649;SDS011;10484;48.736;9.332;2024-01-30T10:52:03;13.50;;;11.23;;
20649;SDS011;10484;48.736;9.332;2024-01-30T10:54:30;11.77;;;10.60;;
20649;SDS011;10484;48.736;9.332;2024-01-30T10:56:58;12.75;;;11.40;;
20649;SDS011;10484;48.736;9.332;2024-01-30T10:59:26;14.13;;;11.60;;
20649;SDS011;10484;48.736;9.332;2024-01-30T11:01:53;16.35;;;10.73;;
20649;SDS011;10484;48.736;9.332;2024-01-30T11:04:19;19.87;;;12.27;;
20649;SDS011;10484;48.736;9.332;2024-01-30T11:06:49;14.07;;;11.35;;
20649;SDS011;10484;48.736;9.332;2024-01-30T11:09:16;13.15;;;11.30;;
20649;SDS011;10484;48.736;9.332;2024-01-30T11:11:55;18.67;;;13.02;;
20649;SDS011;10484;48.736;9.332;2024-01-30T11:14:25;15.05;;;11.93;;
20649;SDS011;10484;48.736;9.332;2024-01-30T11:16:51;15.18;;;12.25;;
20649;SDS011;10484;48.736;9.332;2024-01-30T11:19:23;13.83;;;12.30;;
20649;SDS011;10484;48.736;9.332;2024-01-30T11:21:53;14.98;;;12.45;;
20649;SDS011;10484;48.736;9.332;2024-01-30T11:24:25;19.60;;;12.38;;
20649;SDS011;10484;48.736;9.332;2024-01-30T11:26:57;15.25;;;12.13;;
20649;SDS011;10484;48.736;9.332;2024-01-30T11:29:24;12.48;;;10.70;;
20649;SDS011;10484;48.736;9.332;2024-01-30T11:31:57;14.38;;;10.70;;
20649;SDS011;10484;48.736;9.332;2024-01-30T11:34:23;13.50;;;10.30;;
20649;SDS011;10484;48.736;9.332;2024-01-30T11:36:54;12.30;;;10.70;;
20649;SDS011;10484;48.736;9.332;2024-01-30T11:39:24;15.88;;;11.38;;
20649;SDS011;10484;48.736;9.332;2024-01-30T11:41:51;11.38;;;10.27;;
20649;SDS011;10484;48.736;9.332;2024-01-30T11:44:18;13.63;;;11.38;;
20649;SDS011;10484;48.736;9.332;2024-01-30T11:46:45;13.23;;;10.57;;
20649;SDS011;10484;48.736;9.332;2024-01-30T11:49:12;12.25;;;10.95;;
20649;SDS011;10484;48.736;9.332;2024-01-30T11:51:38;12.23;;;10.43;;
20649;SDS011;10484;48.736;9.332;2024-01-30T11:54:04;12.43;;;10.57;;
20649;SDS011;10484;48.736;9.332;2024-01-30T11:56:29;16.03;;;10.17;;
20649;SDS011;10484;48.736;9.332;2024-01-30T11:58:55;13.23;;;9.17;;
20649;SDS011;10484;48.736;9.332;2024-01-30T12:01:20;11.00;;;9.30;;
20649;SDS011;10484;48.736;9.332;2024-01-30T12:03:50;11.10;;;9.93;;
20649;SDS011;10484;48.736;9.332;2024-01-30T12:06:16;10.47;;;9.40;;
20649;SDS011;10484;48.736;9.332;2024-01-30T12:08:41;11.43;;;9.33;;
20649;SDS011;10484;48.736;9.332;2024-01-30T12:11:07;12.00;;;10.00;;
20649;SDS011;10484;48.736;9.332;2024-01-30T12:13:33;9.60;;;8.63;;
20649;SDS011;10484;48.736;9.332;2024-01-30T12:16:02;11.75;;;10.18;;
20649;SDS011;10484;48.736;9.332;2024-01-30T12:18:28;11.60;;;10.37;;
20649;SDS011;10484;48.736;9.332;2024-01-30T12:20:57;13.63;;;10.83;;
20649;SDS011;10484;48.736;9.332;2024-01-30T12:23:28;14.77;;;10.43;;
20649;SDS011;10484;48.736;9.332;2024-01-30T12:25:54;13.20;;;10.67;;
20649;SDS011;10484;48.736;9.332;2024-01-30T12:28:20;12.47;;;9.70;;
20649;SDS011;10484;48.736;9.332;2024-01-30T12:30:46;14.30;;;10.33;;
20649;SDS011;10484;48.736;9.332;2024-01-30T12:33:18;12.57;;;11.37;;
20649;SDS011;10484;48.736;9.332;2024-01-30T12:35:47;11.10;;;10.00;;
20649;SDS011;10484;48.736;9.332;2024-01-30T12:38:13;13.27;;;10.30;;
20649;SDS011;10484;48.736;9.332;2024-01-30T12:40:39;14.07;;;11.40;;
20649;SDS011;10484;48.736;9.332;2024-01-30T12:43:05;13.53;;;10.87;;
20649;SDS011;10484;48.736;9.332;2024-01-30T12:45:31;16.77;;;10.50;;
20649;SDS011;10484;48.736;9.332;2024-01-30T12:47:56;12.73;;;10.37;;
20649;SDS011;10484;48.736;9.332;2024-01-30T12:50:23;14.53;;;10.53;;
20649;SDS011;10484;48.736;9.332;2024-01-30T12:52:49;15.70;;;11.83;;
20649;SDS011;10484;48.736;9.332;2024-01-30T12:55:14;11.87;;;10.40;;
20649;SDS011;10484;48.736;9.332;2024-01-30T12:57:40;11.27;;;9.67;;
20649;SDS011;10484;48.736;9.332;2024-01-30T13:00:06;12.30;;;11.10;;
20649;SDS011;10484;48.736;9.332;2024-01-30T13:02:35;12.70;;;10.10;;
20649;SDS011;10484;48.736;9.332;2024-01-30T13:05:02;13.47;;;10.00;;
20649;SDS011;10484;48.736;9.332;2024-01-30T13:07:29;18.63;;;11.67;;
20649;SDS011;10484;48.736;9.332;2024-01-30T13:09:54;14.70;;;10.40;;
20649;SDS011;10484;48.736;9.332;2024-01-30T13:12:21;12.80;;;10.50;;
20649;SDS011;10484;48.736;9.332;2024-01-30T13:14:47;12.97;;;10.13;;
20649;SDS011;10484;48.736;9.332;2024-01-30T13:17:12;13.63;;;10.90;;
20649;SDS011;10484;48.736;9.332;2024-01-30T13:19:38;10.83;;;9.67;;
20649;SDS011;10484;48.736;9.332;2024-01-30T13:22:03;11.37;;;8.90;;
20649;SDS011;10484;48.736;9.332;2024-01-30T13:24:29;10.37;;;9.23;;
20649;SDS011;10484;48.736;9.332;2024-01-30T13:26:54;13.60;;;9.83;;
20649;SDS011;10484;48.736;9.332;2024-01-30T13:29:20;11.93;;;9.90;;
20649;SDS011;10484;48.736;9.332;2024-01-30T13:31:46;12.50;;;10.07;;
20649;SDS011;10484;48.736;9.332;2024-01-30T13:34:11;13.57;;;9.93;;
20649;SDS011;10484;48.736;9.332;2024-01-30T13:36:38;14.50;;;10.53;;
20649;SDS011;10484;48.736;9.332;2024-01-30T13:39:04;11.47;;;9.40;;
20649;SDS011;10484;48.736;9.332;2024-01-30T13:41:35;10.80;;;9.70;;
20649;SDS011;10484;48.736;9.332;2024-01-30T13:44:01;13.77;;;9.93;;
20649;SDS011;10484;48.736;9.332;2024-01-30T13:46:28;14.07;;;8.80;;
20649;SDS011;10484;48.736;9.332;2024-01-30T13:48:54;11.10;;;9.90;;
20649;SDS011;10484;48.736;9.332;2024-01-30T13:51:20;12.50;;;9.77;;
20649;SDS011;10484;48.736;9.332;2024-01-30T13:53:45;12.10;;;9.70;;
20649;SDS011;10484;48.736;9.332;2024-01-30T13:56:11;11.67;;;9.30;;
20649;SDS011;10484;48.736;9.332;2024-01-30T13:58:36;12.33;;;10.17;;
20649;SDS011;10484;48.736;9.332;2024-01-30T14:01:02;18.23;;;11.50;;
20649;SDS011;10484;48.736;9.332;2024-01-30T14:03:28;18.23;;;12.40;;
20649;SDS011;10484;48.736;9.332;2024-01-30T14:05:54;12.60;;;9.45;;
20649;SDS011;10484;48.736;9.332;2024-01-30T14:08:19;10.93;;;8.43;;
20649;SDS011;10484;48.736;9.332;2024-01-30T14:10:46;10.53;;;8.07;;
20649;SDS011;10484;48.736;9.332;2024-01-30T14:13:12;8.60;;;7.80;;
20649;SDS011;10484;48.736;9.332;2024-01-30T14:15:38;11.33;;;8.20;;
20649;SDS011;10484;48.736;9.332;2024-01-30T14:18:04;8.87;;;7.90;;
20649;SDS011;10484;48.736;9.332;2024-01-30T14:20:30;11.73;;;7.90;;
20649;SDS011;10484;48.736;9.332;2024-01-30T14:22:56;9.83;;;8.57;;
20649;SDS011;10484;48.736;9.332;2024-01-30T14:25:22;7.93;;;7.13;;
20649;SDS011;10484;48.736;9.332;2024-01-30T14:27:47;11.10;;;7.50;;
20649;SDS011;10484;48.736;9.332;2024-01-30T14:30:13;8.43;;;7.60;;
20649;SDS011;10484;48.736;9.332;2024-01-30T14:32:38;11.53;;;7.97;;